createdAt,value
2018-09-23T00:00:31.620Z,58.11
2018-09-23T00:03:01.487Z,58.81
2018-09-23T00:05:31.576Z,59.99
2018-09-23T00:08:01.495Z,59.28
2018-09-23T00:10:31.413Z,62.17
2018-09-23T00:13:01.584Z,63.04
2018-09-23T00:15:31.573Z,61.97
2018-09-23T00:18:01.462Z,62.07
2018-09-23T00:20:31.475Z,62.62
2018-09-23T00:23:01.839Z,63.89
2018-09-23T00:25:31.514Z,64.61
2018-09-23T00:28:01.451Z,64.29
2018-09-23T00:30:31.543Z,64.39
2018-09-23T00:33:01.479Z,64.73
2018-09-23T00:35:31.566Z,65.50
2018-09-23T00:38:01.591Z,65.52
2018-09-23T00:40:31.507Z,65.68
2018-09-23T00:43:01.535Z,65.44
2018-09-23T00:45:31.546Z,65.36
2018-09-23T00:48:01.615Z,65.18
2018-09-23T00:50:31.509Z,65.20
2018-09-23T00:53:01.566Z,66.74
2018-09-23T00:55:31.616Z,66.77
2018-09-23T00:58:01.527Z,66.54
2018-09-23T01:00:31.662Z,67.13
2018-09-23T01:03:01.554Z,66.63
2018-09-23T01:05:31.583Z,66.31
2018-09-23T01:08:01.780Z,66.33
2018-09-23T01:10:31.623Z,66.01
2018-09-23T01:13:01.623Z,65.98
2018-09-23T01:15:31.699Z,67.01
2018-09-23T01:18:01.664Z,66.46
2018-09-23T01:20:31.723Z,67.58
2018-09-23T01:23:01.931Z,67.77
2018-09-23T01:25:31.727Z,66.73
2018-09-23T01:28:01.628Z,66.71
2018-09-23T01:30:31.610Z,66.29
2018-09-23T01:33:01.659Z,66.29
2018-09-23T01:35:31.690Z,67.78
2018-09-23T01:38:01.639Z,68.54
2018-09-23T01:40:31.719Z,68.49
2018-09-23T01:43:01.650Z,67.81
2018-09-23T01:45:31.756Z,68.05
2018-09-23T01:48:01.663Z,67.49
2018-09-23T01:50:31.711Z,67.21
2018-09-23T01:53:01.708Z,68.19
2018-09-23T01:55:31.818Z,67.53
2018-09-23T01:58:01.730Z,67.71
2018-09-23T02:00:31.758Z,67.19
2018-09-23T02:03:01.728Z,67.84
2018-09-23T02:05:31.794Z,67.48
2018-09-23T02:08:01.815Z,68.17
2018-09-23T02:10:31.799Z,67.64
2018-09-23T02:13:01.735Z,67.91
2018-09-23T02:15:31.755Z,67.14
2018-09-23T02:18:01.766Z,67.23
2018-09-23T02:20:31.777Z,67.14
2018-09-23T02:23:01.760Z,66.76
2018-09-23T02:25:31.834Z,67.84
2018-09-23T02:28:01.835Z,67.64
2018-09-23T02:30:31.831Z,67.54
2018-09-23T02:33:01.767Z,67.02
2018-09-23T02:35:31.792Z,66.63
2018-09-23T02:38:01.798Z,67.39
2018-09-23T02:40:31.862Z,66.78
2018-09-23T02:43:01.766Z,67.02
2018-09-23T02:45:31.871Z,65.98
2018-09-23T02:48:01.891Z,65.95
2018-09-23T02:50:31.902Z,66.74
2018-09-23T02:53:01.953Z,65.34
2018-09-23T02:55:31.811Z,65.17
2018-09-23T02:58:01.947Z,66.91
2018-09-23T03:00:31.850Z,66.82
2018-09-23T03:03:01.994Z,66.76
2018-09-23T03:05:31.837Z,66.23
2018-09-23T03:08:01.920Z,67.13
2018-09-23T03:10:31.946Z,67.10
2018-09-23T03:13:01.935Z,66.86
2018-09-23T03:15:31.960Z,66.53
2018-09-23T03:18:01.910Z,66.26
2018-09-23T03:20:31.899Z,66.99
2018-09-23T03:23:01.914Z,67.50
2018-09-23T03:25:32.006Z,66.85
2018-09-23T03:28:01.900Z,67.47
2018-09-23T03:30:31.926Z,67.75
2018-09-23T03:33:01.984Z,67.53
2018-09-23T03:35:32.001Z,67.22
2018-09-23T03:38:01.918Z,68.69
2018-09-23T03:40:31.938Z,68.17
2018-09-23T03:43:01.953Z,68.54
2018-09-23T03:45:31.987Z,68.89
2018-09-23T03:48:02.002Z,69.46
2018-09-23T03:50:32.001Z,68.79
2018-09-23T03:53:02.030Z,68.81
2018-09-23T03:55:32.026Z,69.46
2018-09-23T03:58:02.103Z,69.40
2018-09-23T04:00:31.955Z,69.51
2018-09-23T04:03:02.019Z,70.03
2018-09-23T04:05:32.006Z,70.43
2018-09-23T04:08:02.082Z,69.92
2018-09-23T04:10:32.155Z,70.84
2018-09-23T04:13:02.095Z,70.01
2018-09-23T04:15:32.109Z,71.98
2018-09-23T04:18:02.002Z,71.50
2018-09-23T04:20:32.311Z,71.26
2018-09-23T04:23:02.182Z,72.16
2018-09-23T04:25:32.099Z,71.82
2018-09-23T04:28:02.084Z,71.47
2018-09-23T04:30:32.164Z,72.38
2018-09-23T04:33:02.067Z,71.41
2018-09-23T04:35:33.482Z,71.08
2018-09-23T04:38:02.635Z,72.09
2018-09-23T04:40:32.035Z,70.82
2018-09-23T04:43:02.398Z,72.07
2018-09-23T04:45:32.132Z,72.24
2018-09-23T04:48:02.098Z,72.73
2018-09-23T04:50:32.110Z,72.15
2018-09-23T04:53:02.110Z,72.69
2018-09-23T04:55:32.151Z,73.03
2018-09-23T04:58:02.180Z,72.23
2018-09-23T05:00:32.099Z,72.35
2018-09-23T05:03:02.114Z,73.08
2018-09-23T05:05:32.207Z,72.94
2018-09-23T05:08:02.211Z,73.17
2018-09-23T05:10:32.149Z,72.95
2018-09-23T05:13:02.167Z,72.48
2018-09-23T05:15:32.179Z,73.14
2018-09-23T05:18:02.307Z,72.61
2018-09-23T05:20:32.222Z,72.72
2018-09-23T05:23:02.263Z,72.50
2018-09-23T05:25:32.335Z,72.33
2018-09-23T05:28:02.209Z,72.13
2018-09-23T05:30:32.198Z,72.46
2018-09-23T05:33:02.266Z,72.21
2018-09-23T05:35:32.332Z,71.54
2018-09-23T05:38:02.697Z,71.87
2018-09-23T05:40:32.307Z,71.92
2018-09-23T05:43:02.343Z,73.17
2018-09-23T05:45:32.338Z,72.90
2018-09-23T05:48:02.342Z,73.24
2018-09-23T05:50:32.246Z,72.53
2018-09-23T05:53:02.516Z,72.90
2018-09-23T05:55:31.627Z,72.74
2018-09-23T05:58:00.771Z,73.25
2018-09-23T06:00:32.232Z,72.82
2018-09-23T06:03:01.444Z,73.56
2018-09-23T06:05:30.531Z,73.18
2018-09-23T06:07:59.687Z,73.09
2018-09-23T06:10:28.941Z,72.67
2018-09-23T06:12:58.115Z,72.68
2018-09-23T06:15:27.247Z,71.80
2018-09-23T06:17:56.399Z,72.63
2018-09-23T06:20:25.557Z,72.23
2018-09-23T06:22:54.715Z,72.76
2018-09-23T06:25:23.983Z,71.97
2018-09-23T06:27:52.994Z,71.90
2018-09-23T06:30:22.143Z,72.30
2018-09-23T06:32:51.300Z,71.78
2018-09-23T06:35:20.455Z,72.06
2018-09-23T06:37:49.606Z,70.79
2018-09-23T06:40:18.751Z,71.77
2018-09-23T06:42:47.943Z,70.20
2018-09-23T06:45:17.494Z,70.91
2018-09-23T06:47:46.643Z,70.74
2018-09-23T06:50:15.981Z,71.73
2018-09-23T06:52:46.436Z,70.38
2018-09-23T06:55:15.579Z,70.49
2018-09-23T06:57:44.876Z,70.84
2018-09-23T07:00:14.118Z,71.11
2018-09-23T07:02:43.322Z,70.55
2018-09-23T07:05:12.775Z,70.44
2018-09-23T07:07:42.048Z,69.46
2018-09-23T07:10:11.220Z,68.54
2018-09-23T07:12:40.385Z,69.08
2018-09-23T07:15:09.867Z,69.44
2018-09-23T07:17:39.006Z,69.97
2018-09-23T07:20:08.171Z,69.20
2018-09-23T07:22:37.314Z,68.66
2018-09-23T07:25:06.511Z,68.21
2018-09-23T07:27:35.666Z,68.39
2018-09-23T07:30:05.410Z,67.21
2018-09-23T07:32:34.522Z,67.93
2018-09-23T07:35:03.658Z,67.62
2018-09-23T07:37:34.094Z,68.91
2018-09-23T07:40:03.454Z,67.71
2018-09-23T07:42:33.317Z,67.91
2018-09-23T07:45:03.442Z,68.11
2018-09-23T07:47:33.227Z,67.84
2018-09-23T07:50:03.383Z,68.67
2018-09-23T07:52:33.434Z,68.76
2018-09-23T07:55:03.399Z,68.59
2018-09-23T07:57:33.359Z,68.54
2018-09-23T08:00:03.497Z,69.45
2018-09-23T08:02:33.251Z,69.58
2018-09-23T08:05:03.264Z,69.50
2018-09-23T08:07:33.519Z,68.75
2018-09-23T08:10:03.512Z,69.58
2018-09-23T08:12:33.378Z,70.65
2018-09-23T08:15:03.722Z,69.61
2018-09-23T08:17:33.296Z,70.24
2018-09-23T08:20:03.534Z,69.96
2018-09-23T08:22:33.605Z,69.76
2018-09-23T08:25:03.544Z,69.67
2018-09-23T08:27:33.429Z,69.75
2018-09-23T08:30:02.634Z,69.69
2018-09-23T08:32:38.267Z,69.28
2018-09-23T08:35:08.653Z,70.40
2018-09-23T08:37:38.399Z,69.78
2018-09-23T08:40:08.338Z,70.61
2018-09-23T08:42:38.438Z,71.53
2018-09-23T08:45:08.642Z,72.32
2018-09-23T08:47:38.337Z,71.84
2018-09-23T08:50:08.359Z,72.44
2018-09-23T08:52:38.400Z,73.44
2018-09-23T08:55:08.375Z,72.92
2018-09-23T08:57:38.468Z,72.79
2018-09-23T09:00:08.451Z,73.53
2018-09-23T09:02:38.368Z,72.12
2018-09-23T09:05:08.614Z,71.93
2018-09-23T09:07:38.395Z,73.29
2018-09-23T09:10:08.646Z,73.79
2018-09-23T09:12:38.444Z,73.49
2018-09-23T09:15:08.827Z,73.75
2018-09-23T09:17:38.455Z,72.86
2018-09-23T09:20:08.833Z,73.33
2018-09-23T09:22:38.507Z,72.20
2018-09-23T09:25:08.474Z,72.81
2018-09-23T09:27:38.416Z,72.55
2018-09-23T09:30:08.815Z,72.19
2018-09-23T09:32:38.523Z,71.96
2018-09-23T09:35:08.440Z,72.65
2018-09-23T09:37:38.484Z,72.12
2018-09-23T09:40:08.878Z,72.34
2018-09-23T09:42:38.521Z,71.80
2018-09-23T09:45:08.463Z,71.98
2018-09-23T09:47:38.550Z,72.10
2018-09-23T09:50:08.957Z,71.59
2018-09-23T09:52:38.483Z,71.04
2018-09-23T09:55:09.720Z,70.06
2018-09-23T09:57:38.823Z,70.41
2018-09-23T10:00:09.245Z,70.40
2018-09-23T10:02:38.531Z,70.98
2018-09-23T10:05:08.535Z,70.19
2018-09-23T10:07:38.751Z,70.71
2018-09-23T10:10:08.843Z,69.88
2018-09-23T10:12:38.536Z,69.30
2018-09-23T10:15:08.936Z,70.01
2018-09-23T10:17:38.617Z,68.99
2018-09-23T10:20:08.568Z,68.97
2018-09-23T10:22:38.561Z,68.63
2018-09-23T10:25:08.591Z,68.87
2018-09-23T10:27:38.703Z,68.64
2018-09-23T10:35:12.751Z,68.00
2018-09-23T10:37:41.911Z,67.78
2018-09-23T10:40:11.083Z,68.38
2018-09-23T10:42:40.323Z,67.42
2018-09-23T10:45:09.615Z,66.64
2018-09-23T10:47:38.836Z,67.33
2018-09-23T10:50:09.007Z,67.80
2018-09-23T10:52:38.775Z,67.27
2018-09-23T10:55:09.104Z,67.41
2018-09-23T10:57:38.671Z,66.33
2018-09-23T11:00:08.799Z,66.41
2018-09-23T11:02:38.823Z,66.72
2018-09-23T11:05:09.052Z,66.59
2018-09-23T11:07:38.686Z,65.83
2018-09-23T11:10:08.883Z,64.72
2018-09-23T11:12:38.772Z,63.00
2018-09-23T11:15:09.539Z,63.64
2018-09-23T11:17:38.777Z,64.70
2018-09-23T11:20:09.027Z,63.33
2018-09-23T11:22:38.774Z,63.79
2018-09-23T11:25:09.298Z,63.95
2018-09-23T11:27:38.816Z,63.99
2018-09-23T11:35:14.190Z,63.77
2018-09-23T11:37:43.374Z,63.74
2018-09-23T11:40:12.773Z,64.70
2018-09-23T11:42:41.929Z,63.73
2018-09-23T11:45:11.151Z,63.41
2018-09-23T11:47:40.374Z,63.35
2018-09-23T11:50:09.519Z,62.74
2018-09-23T11:52:38.905Z,63.03
2018-09-23T11:55:08.950Z,63.57
2018-09-23T11:57:38.922Z,62.55
2018-09-23T12:05:20.407Z,63.86
2018-09-23T12:07:49.554Z,64.12
2018-09-23T12:10:18.726Z,64.69
2018-09-23T12:12:47.854Z,64.45
2018-09-23T12:15:16.991Z,62.39
2018-09-23T12:17:46.291Z,62.47
2018-09-23T12:20:15.466Z,62.06
2018-09-23T12:22:44.731Z,62.08
2018-09-23T12:25:13.993Z,61.01
2018-09-23T12:27:43.261Z,60.78
2018-09-23T12:30:12.537Z,61.37
2018-09-23T12:32:41.678Z,61.11
2018-09-23T12:35:10.911Z,61.23
2018-09-23T12:37:40.137Z,61.99
2018-09-23T12:40:09.277Z,61.46
2018-09-23T12:42:38.935Z,61.27
2018-09-23T12:45:09.534Z,61.08
2018-09-23T12:47:38.949Z,60.54
2018-09-23T12:50:09.155Z,61.02
2018-09-23T12:52:38.988Z,59.96
2018-09-23T12:55:09.303Z,59.98
2018-09-23T12:57:39.017Z,59.72
2018-09-23T13:00:09.200Z,60.21
2018-09-23T13:02:39.369Z,60.38
2018-09-23T13:05:09.274Z,60.54
2018-09-23T13:07:39.280Z,59.78
2018-09-23T13:10:09.307Z,61.05
2018-09-23T13:12:39.387Z,60.73
2018-09-23T13:15:09.122Z,61.01
2018-09-23T13:17:39.428Z,60.90
2018-09-23T13:20:09.571Z,60.48
2018-09-23T13:22:39.591Z,60.23
2018-09-23T13:25:09.530Z,61.24
2018-09-23T13:27:39.414Z,60.62
2018-09-23T13:30:09.465Z,60.31
2018-09-23T13:32:39.552Z,60.35
2018-09-23T13:35:09.431Z,60.91
2018-09-23T13:37:39.614Z,60.22
2018-09-23T13:40:09.520Z,60.60
2018-09-23T13:42:39.715Z,60.66
2018-09-23T13:45:09.792Z,60.87
2018-09-23T13:47:39.516Z,61.25
2018-09-23T13:50:09.496Z,60.94
2018-09-23T13:52:39.547Z,61.54
2018-09-23T13:55:09.576Z,61.06
2018-09-23T13:57:39.659Z,61.23
2018-09-23T14:00:09.994Z,61.76
2018-09-23T14:02:39.139Z,60.85
2018-09-23T14:05:08.393Z,60.47
2018-09-23T14:07:37.505Z,60.78
2018-09-23T14:10:06.666Z,60.70
2018-09-23T14:12:35.879Z,59.74
2018-09-23T14:15:05.090Z,60.83
2018-09-23T14:17:34.451Z,60.89
2018-09-23T14:20:03.691Z,60.17
2018-09-23T14:22:32.855Z,61.29
2018-09-23T14:25:02.048Z,60.23
2018-09-23T14:27:31.342Z,60.33
2018-09-23T14:30:00.577Z,61.27
2018-09-23T14:32:29.772Z,61.42
2018-09-23T14:34:58.926Z,59.80
2018-09-23T14:37:28.162Z,60.08
2018-09-23T14:39:57.323Z,60.53
2018-09-23T14:42:26.499Z,61.12
2018-09-23T14:44:55.602Z,59.97
2018-09-23T14:47:24.854Z,60.32
2018-09-23T14:49:53.985Z,60.63
2018-09-23T14:52:23.239Z,60.55
2018-09-23T14:54:52.445Z,59.77
2018-09-23T14:57:21.558Z,60.60
2018-09-23T14:59:54.193Z,60.25
2018-09-23T15:02:19.919Z,59.81
2018-09-23T15:04:49.063Z,59.87
2018-09-23T15:07:18.311Z,59.17
2018-09-23T15:09:47.458Z,59.72
2018-09-23T15:12:16.760Z,60.04
2018-09-23T15:14:45.919Z,59.46
2018-09-23T15:17:15.067Z,59.89
2018-09-23T15:19:44.203Z,58.91
2018-09-23T15:22:13.379Z,59.33
2018-09-23T15:24:42.623Z,60.25
2018-09-23T15:27:11.792Z,59.28
2018-09-23T15:29:40.926Z,59.54
2018-09-23T15:32:10.361Z,59.58
2018-09-23T15:34:40.354Z,59.70
2018-09-23T15:37:10.455Z,59.97
2018-09-23T15:39:40.291Z,59.05
2018-09-23T15:42:10.353Z,60.02
2018-09-23T15:44:40.311Z,59.72
2018-09-23T15:47:10.330Z,59.33
2018-09-23T15:49:40.415Z,59.83
2018-09-23T15:52:10.653Z,60.15
2018-09-23T15:54:40.391Z,59.35
2018-09-23T15:57:10.443Z,60.57
2018-09-23T15:59:40.466Z,60.04
2018-09-23T16:02:10.399Z,59.81
2018-09-23T16:04:40.627Z,59.32
2018-09-23T16:07:13.680Z,60.69
2018-09-23T16:09:42.828Z,59.24
2018-09-23T16:12:11.979Z,60.04
2018-09-23T16:14:41.318Z,59.39
2018-09-23T16:17:10.487Z,59.18
2018-09-23T16:19:40.470Z,59.76
2018-09-23T16:22:10.459Z,60.57
2018-09-23T16:24:40.417Z,62.99
2018-09-23T16:27:10.467Z,64.44
2018-09-23T16:29:40.433Z,64.92
2018-09-23T16:32:10.545Z,65.25
2018-09-23T16:34:40.531Z,65.07
2018-09-23T16:37:10.486Z,65.59
2018-09-23T16:39:41.032Z,65.16
2018-09-23T16:42:10.682Z,64.01
2018-09-23T16:44:40.702Z,65.18
2018-09-23T16:47:10.568Z,66.76
2018-09-23T16:49:40.671Z,68.10
2018-09-23T16:52:10.632Z,68.10
2018-09-23T16:54:40.711Z,70.14
2018-09-23T16:57:10.662Z,69.81
2018-09-23T16:59:40.635Z,69.91
2018-09-23T17:02:10.697Z,71.56
2018-09-23T17:04:40.853Z,71.60
2018-09-23T17:07:10.673Z,72.59
2018-09-23T17:09:40.620Z,74.14
2018-09-23T17:12:10.771Z,73.74
2018-09-23T17:14:40.684Z,75.21
2018-09-23T17:17:10.643Z,73.59
2018-09-23T17:19:41.582Z,74.64
2018-09-23T17:22:11.133Z,74.41
2018-09-23T17:24:40.698Z,74.74
2018-09-23T17:27:10.758Z,74.25
2018-09-23T17:29:40.746Z,73.71
2018-09-23T17:32:10.696Z,72.34
2018-09-23T17:34:40.776Z,71.84
2018-09-23T17:37:10.798Z,72.77
2018-09-23T17:39:40.815Z,72.75
2018-09-23T17:42:10.778Z,72.75
2018-09-23T17:44:40.735Z,72.53
2018-09-23T17:47:10.743Z,73.84
2018-09-23T17:49:40.766Z,73.96
2018-09-23T17:52:10.803Z,74.15
2018-09-23T17:54:40.814Z,73.71
2018-09-23T17:57:10.933Z,74.51
2018-09-23T17:59:40.843Z,74.83
2018-09-23T18:02:10.860Z,73.75
2018-09-23T18:04:40.951Z,74.91
2018-09-23T18:07:10.891Z,74.32
2018-09-23T18:09:40.878Z,73.62
2018-09-23T18:12:10.789Z,73.69
2018-09-23T18:14:40.849Z,74.17
2018-09-23T18:17:10.840Z,73.50
2018-09-23T18:19:40.923Z,74.83
2018-09-23T18:22:13.796Z,74.32
2018-09-23T18:24:42.983Z,73.84
2018-09-23T18:27:12.519Z,74.92
2018-09-23T18:29:41.857Z,74.87
2018-09-23T18:32:10.976Z,74.28
2018-09-23T18:34:40.877Z,71.84
2018-09-23T18:37:10.962Z,67.54
2018-09-23T18:39:41.004Z,66.84
2018-09-23T18:42:10.930Z,67.12
2018-09-23T18:44:41.229Z,65.71
2018-09-23T18:47:10.946Z,66.84
2018-09-23T18:49:40.922Z,70.02
2018-09-23T18:52:11.079Z,70.80
2018-09-23T18:54:46.246Z,69.40
2018-09-23T18:57:15.498Z,68.36
2018-09-23T18:59:44.647Z,68.36
2018-09-23T19:02:13.870Z,68.24
2018-09-23T19:04:43.078Z,71.44
2018-09-23T19:07:12.271Z,71.33
2018-09-23T19:09:41.495Z,71.16
2018-09-23T19:12:11.435Z,70.94
2018-09-23T19:14:40.994Z,69.87
2018-09-23T19:17:11.367Z,71.17
2018-09-23T19:19:46.519Z,71.45
2018-09-23T19:22:21.010Z,70.94
2018-09-23T19:24:50.211Z,70.63
2018-09-23T19:27:19.353Z,69.44
2018-09-23T19:29:48.592Z,70.23
2018-09-23T19:32:17.842Z,70.95
2018-09-23T19:34:46.982Z,70.66
2018-09-23T19:37:16.179Z,70.83
2018-09-23T19:39:45.342Z,70.32
2018-09-23T19:42:14.760Z,70.33
2018-09-23T19:44:43.982Z,70.08
2018-09-23T19:47:13.158Z,70.59
2018-09-23T19:49:42.292Z,68.62
2018-09-23T19:52:11.432Z,68.85
2018-09-23T19:54:41.401Z,70.46
2018-09-23T19:57:11.364Z,70.92
2018-09-23T19:59:41.354Z,68.78
2018-09-23T20:02:11.447Z,69.97
2018-09-23T20:04:41.650Z,69.50
2018-09-23T20:07:11.421Z,70.86
2018-09-23T20:09:41.538Z,68.94
2018-09-23T20:12:11.530Z,68.44
2018-09-23T20:14:41.620Z,69.12
2018-09-23T20:17:11.554Z,68.34
2018-09-23T20:19:41.395Z,68.62
2018-09-23T20:22:12.281Z,67.64
2018-09-23T20:24:41.834Z,68.29
2018-09-23T20:27:11.518Z,68.12
2018-09-23T20:29:41.429Z,68.35
2018-09-23T20:32:11.583Z,68.29
2018-09-23T20:34:41.634Z,68.33
2018-09-23T20:37:11.531Z,66.75
2018-09-23T20:39:41.430Z,67.68
2018-09-23T20:42:11.457Z,68.29
2018-09-23T20:44:41.539Z,67.56
2018-09-23T20:47:11.495Z,68.39
2018-09-23T20:49:41.764Z,67.88
2018-09-23T20:52:11.535Z,67.88
2018-09-23T20:54:41.586Z,66.27
2018-09-23T20:57:11.724Z,67.94
2018-09-23T20:59:41.492Z,67.89
2018-09-23T21:02:11.524Z,66.20
2018-09-23T21:04:41.754Z,67.43
2018-09-23T21:07:11.670Z,68.12
2018-09-23T21:09:41.471Z,67.25
2018-09-23T21:12:12.577Z,67.59
2018-09-23T21:14:41.714Z,67.58
2018-09-23T21:17:11.665Z,66.64
2018-09-23T21:19:41.597Z,67.08
2018-09-23T21:22:11.627Z,67.27
2018-09-23T21:24:41.545Z,67.03
2018-09-23T21:27:42.279Z,66.33
2018-09-23T21:30:11.598Z,66.46
2018-09-23T21:32:41.634Z,66.15
2018-09-23T21:35:11.606Z,66.90
2018-09-23T21:37:41.739Z,66.24
2018-09-23T21:40:11.626Z,66.93
2018-09-23T21:42:41.665Z,67.10
2018-09-23T21:45:11.586Z,67.04
2018-09-23T21:47:41.560Z,67.01
2018-09-23T21:50:11.660Z,66.51
2018-09-23T21:52:41.611Z,66.60
2018-09-23T21:55:11.630Z,65.85
2018-09-23T21:57:41.659Z,66.27
2018-09-23T22:00:11.725Z,65.25
2018-09-23T22:02:41.714Z,66.49
2018-09-23T22:05:11.766Z,66.01
2018-09-23T22:07:41.625Z,66.78
2018-09-23T22:10:11.628Z,66.38
2018-09-23T22:12:41.719Z,67.42
2018-09-23T22:15:17.854Z,67.40
2018-09-23T22:17:47.018Z,66.45
2018-09-23T22:20:16.155Z,65.92
2018-09-23T22:22:45.385Z,66.52
2018-09-23T22:25:14.521Z,66.10
2018-09-23T22:27:43.751Z,66.45
2018-09-23T22:30:12.967Z,65.87
2018-09-23T22:32:42.051Z,64.83
2018-09-23T22:35:11.757Z,65.82
2018-09-23T22:37:41.739Z,65.52
2018-09-23T22:40:11.688Z,65.23
2018-09-23T22:42:41.761Z,65.62
2018-09-23T22:45:11.770Z,66.82
2018-09-23T22:47:41.726Z,65.45
2018-09-23T22:50:11.719Z,65.83
2018-09-23T22:52:41.854Z,63.73
2018-09-23T22:55:11.732Z,64.96
2018-09-23T22:57:41.779Z,65.74
2018-09-23T23:00:11.729Z,63.88
2018-09-23T23:02:41.766Z,64.46
2018-09-23T23:05:11.814Z,63.94
2018-09-23T23:07:41.843Z,63.96
2018-09-23T23:10:11.855Z,63.96
2018-09-23T23:12:42.059Z,64.03
2018-09-23T23:15:11.795Z,64.39
2018-09-23T23:17:41.899Z,64.06
2018-09-23T23:20:11.811Z,63.93
2018-09-23T23:22:40.962Z,64.00
2018-09-23T23:25:10.091Z,64.42
2018-09-23T23:27:39.375Z,64.54
2018-09-23T23:30:08.526Z,64.58
2018-09-23T23:32:37.761Z,64.43
2018-09-23T23:35:06.922Z,63.67
2018-09-23T23:37:36.064Z,63.98
2018-09-23T23:40:06.385Z,64.58
2018-09-23T23:42:35.519Z,64.78
2018-09-23T23:45:04.711Z,65.96
2018-09-23T23:47:33.866Z,64.81
2018-09-23T23:50:03.023Z,64.26
2018-09-23T23:52:32.156Z,64.09
2018-09-23T23:55:01.322Z,64.65
2018-09-23T23:57:30.455Z,64.09
2018-09-23T23:59:59.691Z,64.45
